sensor_id;sensor_type;location;lat;lon;timestamp;pressure;altitude;pressure_sealevel;temperature;humidity
25084;BME280;13075;55.682;37.564;2023-06-22T14:48:00;99231.13;;;33.15;28.90
25084;BME280;13075;55.682;37.564;2023-06-22T14:50:25;99233.91;;;33.31;28.53
25084;BME280;13075;55.682;37.564;2023-06-22T14:52:51;99239.63;;;33.54;27.98
25084;BME280;13075;55.682;37.564;2023-06-22T14:55:16;99232.81;;;33.36;28.42
25084;BME280;13075;55.682;37.564;2023-06-22T14:57:42;99237.66;;;33.39;28.50
25084;BME280;13075;55.682;37.564;2023-06-22T15:00:07;99233.81;;;33.43;28.72
25084;BME280;13075;55.682;37.564;2023-06-22T15:02:33;99231.84;;;33.59;28.55
25084;BME280;13075;55.682;37.564;2023-06-22T15:04:58;99230.22;;;33.58;28.20
25084;BME280;13075;55.682;37.564;2023-06-22T15:07:24;99233.97;;;33.66;27.84
25084;BME280;13075;55.682;37.564;2023-06-22T15:09:49;99227.13;;;33.60;27.92
25084;BME280;13075;55.682;37.564;2023-06-22T15:12:14;99223.97;;;33.61;27.77
25084;BME280;13075;55.682;37.564;2023-06-22T15:14:41;99218.22;;;33.54;27.99
25084;BME280;13075;55.682;37.564;2023-06-22T15:17:07;99215.78;;;33.53;28.20
25084;BME280;13075;55.682;37.564;2023-06-22T15:19:37;99211.69;;;33.47;28.80
25084;BME280;13075;55.682;37.564;2023-06-22T15:22:06;99216.00;;;33.44;28.64
25084;BME280;13075;55.682;37.564;2023-06-22T15:24:32;99204.53;;;33.30;29.01
25084;BME280;13075;55.682;37.564;2023-06-22T15:26:57;99208.47;;;32.98;28.65
25084;BME280;13075;55.682;37.564;2023-06-22T15:29:23;99212.16;;;33.17;28.26
25084;BME280;13075;55.682;37.564;2023-06-22T15:31:48;99209.25;;;32.83;28.95
25084;BME280;13075;55.682;37.564;2023-06-22T15:34:16;99200.66;;;32.88;28.27
25084;BME280;13075;55.682;37.564;2023-06-22T15:36:41;99208.19;;;33.03;28.25
25084;BME280;13075;55.682;37.564;2023-06-22T15:39:06;99205.75;;;32.70;29.11
25084;BME280;13075;55.682;37.564;2023-06-22T15:41:32;99197.81;;;33.00;28.65
25084;BME280;13075;55.682;37.564;2023-06-22T15:43:58;99195.19;;;33.19;28.43
25084;BME280;13075;55.682;37.564;2023-06-22T15:46:23;99196.94;;;33.11;28.78
25084;BME280;13075;55.682;37.564;2023-06-22T15:48:48;99197.09;;;33.03;28.95
25084;BME280;13075;55.682;37.564;2023-06-22T15:51:14;99197.78;;;32.84;29.20
25084;BME280;13075;55.682;37.564;2023-06-22T15:53:40;99202.88;;;32.82;28.87
25084;BME280;13075;55.682;37.564;2023-06-22T15:56:05;99193.25;;;32.92;29.25
25084;BME280;13075;55.682;37.564;2023-06-22T15:58:35;99193.50;;;32.87;29.51
25084;BME280;13075;55.682;37.564;2023-06-22T16:01:01;99198.72;;;33.19;29.56
25084;BME280;13075;55.682;37.564;2023-06-22T16:03:26;99201.59;;;33.23;28.96
25084;BME280;13075;55.682;37.564;2023-06-22T16:05:52;99201.06;;;33.33;28.96
25084;BME280;13075;55.682;37.564;2023-06-22T16:08:17;99191.94;;;33.33;28.70
25084;BME280;13075;55.682;37.564;2023-06-22T16:10:43;99186.22;;;33.10;29.36
25084;BME280;13075;55.682;37.564;2023-06-22T16:13:08;99186.94;;;33.07;29.70
25084;BME280;13075;55.682;37.564;2023-06-22T16:15:34;99184.88;;;33.04;30.22
25084;BME280;13075;55.682;37.564;2023-06-22T16:17:59;99179.78;;;33.06;29.78
25084;BME280;13075;55.682;37.564;2023-06-22T16:20:25;99185.19;;;33.02;29.66
25084;BME280;13075;55.682;37.564;2023-06-22T16:22:50;99188.50;;;32.92;30.00
25084;BME280;13075;55.682;37.564;2023-06-22T16:25:16;99184.38;;;33.02;29.77
25084;BME280;13075;55.682;37.564;2023-06-22T16:27:43;99198.91;;;32.67;30.35
25084;BME280;13075;55.682;37.564;2023-06-22T16:30:09;99199.06;;;31.43;31.61
25084;BME280;13075;55.682;37.564;2023-06-22T16:32:35;99207.97;;;31.61;31.60
25084;BME280;13075;55.682;37.564;2023-06-22T16:35:00;99204.69;;;31.10;32.03
25084;BME280;13075;55.682;37.564;2023-06-22T16:37:26;99197.47;;;30.85;32.49
25084;BME280;13075;55.682;37.564;2023-06-22T16:39:51;99211.41;;;30.89;32.51
25084;BME280;13075;55.682;37.564;2023-06-22T16:42:17;99216.09;;;30.43;33.33
25084;BME280;13075;55.682;37.564;2023-06-22T16:44:42;99215.41;;;30.05;34.18
25084;BME280;13075;55.682;37.564;2023-06-22T16:47:08;99214.19;;;29.64;34.65
25084;BME280;13075;55.682;37.564;2023-06-22T16:49:34;99222.00;;;29.92;34.30
25084;BME280;13075;55.682;37.564;2023-06-22T16:52:01;99216.88;;;29.82;34.80
25084;BME280;13075;55.682;37.564;2023-06-22T16:54:28;99214.31;;;29.97;34.56
25084;BME280;13075;55.682;37.564;2023-06-22T16:56:54;99210.84;;;29.50;35.19
25084;BME280;13075;55.682;37.564;2023-06-22T16:59:19;99211.88;;;28.91;36.16
25084;BME280;13075;55.682;37.564;2023-06-22T17:01:49;99215.19;;;29.31;35.59
25084;BME280;13075;55.682;37.564;2023-06-22T17:04:16;99211.06;;;28.99;35.94
25084;BME280;13075;55.682;37.564;2023-06-22T17:06:46;99214.72;;;28.39;37.05
25084;BME280;13075;55.682;37.564;2023-06-22T17:09:13;99222.19;;;28.65;36.58
25084;BME280;13075;55.682;37.564;2023-06-22T17:11:39;99221.03;;;28.66;36.31
25084;BME280;13075;55.682;37.564;2023-06-22T17:14:05;99220.06;;;28.36;36.84
25084;BME280;13075;55.682;37.564;2023-06-22T17:16:31;99225.88;;;28.69;36.58
25084;BME280;13075;55.682;37.564;2023-06-22T17:18:57;99225.41;;;28.15;37.47
25084;BME280;13075;55.682;37.564;2023-06-22T17:21:28;99233.84;;;28.62;36.77
25084;BME280;13075;55.682;37.564;2023-06-22T17:23:55;99232.03;;;28.83;36.58
25084;BME280;13075;55.682;37.564;2023-06-22T17:26:21;99235.09;;;28.56;36.92
25084;BME280;13075;55.682;37.564;2023-06-22T17:28:50;99235.75;;;28.53;37.06
25084;BME280;13075;55.682;37.564;2023-06-22T17:31:17;99234.88;;;27.83;38.16
25084;BME280;13075;55.682;37.564;2023-06-22T17:33:43;99225.41;;;28.07;37.81
25084;BME280;13075;55.682;37.564;2023-06-22T17:36:10;99239.78;;;28.04;38.03
25084;BME280;13075;55.682;37.564;2023-06-22T17:38:36;99245.00;;;28.31;37.32
25084;BME280;13075;55.682;37.564;2023-06-22T17:41:01;99245.81;;;28.49;37.30
25084;BME280;13075;55.682;37.564;2023-06-22T17:43:29;99245.00;;;28.05;37.84
25084;BME280;13075;55.682;37.564;2023-06-22T17:45:58;99248.88;;;28.38;37.48
25084;BME280;13075;55.682;37.564;2023-06-22T17:48:24;99247.88;;;28.00;37.83
25084;BME280;13075;55.682;37.564;2023-06-22T17:50:50;99252.56;;;27.52;38.66
25084;BME280;13075;55.682;37.564;2023-06-22T17:53:15;99247.09;;;27.21;39.33
25084;BME280;13075;55.682;37.564;2023-06-22T17:55:41;99252.25;;;27.14;39.47
25084;BME280;13075;55.682;37.564;2023-06-22T17:58:06;99242.84;;;27.06;39.84
25084;BME280;13075;55.682;37.564;2023-06-22T18:00:31;99245.72;;;25.85;41.38
25084;BME280;13075;55.682;37.564;2023-06-22T18:02:57;99244.53;;;26.49;40.85
25084;BME280;13075;55.682;37.564;2023-06-22T18:07:56;99249.97;;;26.85;40.15
25084;BME280;13075;55.682;37.564;2023-06-22T18:10:21;99245.16;;;26.69;40.63
25084;BME280;13075;55.682;37.564;2023-06-22T18:12:48;99248.47;;;27.01;40.35
25084;BME280;13075;55.682;37.564;2023-06-22T18:15:14;99250.88;;;27.03;40.17
25084;BME280;13075;55.682;37.564;2023-06-22T18:17:41;99249.84;;;26.68;41.04
25084;BME280;13075;55.682;37.564;2023-06-22T18:20:06;99243.72;;;26.93;40.27
25084;BME280;13075;55.682;37.564;2023-06-22T18:22:35;99252.28;;;26.47;41.48
25084;BME280;13075;55.682;37.564;2023-06-22T18:25:01;99253.47;;;26.77;40.99
25084;BME280;13075;55.682;37.564;2023-06-22T18:27:28;99255.06;;;26.56;41.69
25084;BME280;13075;55.682;37.564;2023-06-22T18:29:54;99255.91;;;26.07;42.17
25084;BME280;13075;55.682;37.564;2023-06-22T18:32:20;99242.69;;;26.23;41.95
25084;BME280;13075;55.682;37.564;2023-06-22T18:34:46;99244.53;;;25.64;43.32
25084;BME280;13075;55.682;37.564;2023-06-22T18:37:13;99246.84;;;26.56;41.90
25084;BME280;13075;55.682;37.564;2023-06-22T18:39:39;99235.66;;;25.13;43.69
25084;BME280;13075;55.682;37.564;2023-06-22T18:42:08;99242.50;;;25.70;43.61
25084;BME280;13075;55.682;37.564;2023-06-22T18:44:34;99245.41;;;26.36;42.23
25084;BME280;13075;55.682;37.564;2023-06-22T18:47:06;99241.59;;;26.46;42.01
25084;BME280;13075;55.682;37.564;2023-06-22T18:57:00;99251.00;;;25.82;43.22
25084;BME280;13075;55.682;37.564;2023-06-22T19:02:09;99241.97;;;25.13;45.03
25084;BME280;13075;55.682;37.564;2023-06-22T19:04:40;99249.34;;;25.40;44.65
25084;BME280;13075;55.682;37.564;2023-06-22T19:07:05;99234.94;;;25.07;45.00
25084;BME280;13075;55.682;37.564;2023-06-22T19:09:32;99240.75;;;25.33;45.00
25084;BME280;13075;55.682;37.564;2023-06-22T19:12:30;99242.38;;;25.48;44.32
25084;BME280;13075;55.682;37.564;2023-06-22T19:17:25;99235.84;;;25.03;45.53
25084;BME280;13075;55.682;37.564;2023-06-22T19:19:54;99237.72;;;25.62;44.15
25084;BME280;13075;55.682;37.564;2023-06-22T19:22:23;99244.44;;;24.83;45.55
25084;BME280;13075;55.682;37.564;2023-06-22T19:24:49;99242.38;;;25.48;44.62
25084;BME280;13075;55.682;37.564;2023-06-22T19:27:16;99241.72;;;24.64;46.09
25084;BME280;13075;55.682;37.564;2023-06-22T19:29:41;99244.41;;;24.32;46.76
25084;BME280;13075;55.682;37.564;2023-06-22T19:32:07;99240.91;;;24.45;47.23
25084;BME280;13075;55.682;37.564;2023-06-22T19:34:36;99241.75;;;24.77;46.06
25084;BME280;13075;55.682;37.564;2023-06-22T19:37:15;99225.72;;;25.03;45.58
25084;BME280;13075;55.682;37.564;2023-06-22T19:39:40;99225.34;;;24.77;46.00
25084;BME280;13075;55.682;37.564;2023-06-22T19:42:06;99230.13;;;24.53;46.72
25084;BME280;13075;55.682;37.564;2023-06-22T19:44:32;99232.47;;;24.60;46.79
25084;BME280;13075;55.682;37.564;2023-06-22T19:46:57;99233.81;;;24.76;46.42
25084;BME280;13075;55.682;37.564;2023-06-22T19:49:22;99228.34;;;24.95;46.21
25084;BME280;13075;55.682;37.564;2023-06-22T19:51:48;99219.66;;;25.33;45.22
25084;BME280;13075;55.682;37.564;2023-06-22T19:54:13;99224.22;;;25.38;44.98
25084;BME280;13075;55.682;37.564;2023-06-22T19:56:40;99223.06;;;24.66;46.11
25084;BME280;13075;55.682;37.564;2023-06-22T19:59:13;99209.16;;;24.95;45.99
25084;BME280;13075;55.682;37.564;2023-06-22T20:01:40;99219.91;;;24.59;46.61
25084;BME280;13075;55.682;37.564;2023-06-22T20:04:06;99202.81;;;25.13;45.37
25084;BME280;13075;55.682;37.564;2023-06-22T20:06:31;99206.44;;;25.22;45.18
25084;BME280;13075;55.682;37.564;2023-06-22T20:08:58;99204.91;;;25.29;44.72
25084;BME280;13075;55.682;37.564;2023-06-22T20:11:28;99202.91;;;25.35;44.78
25084;BME280;13075;55.682;37.564;2023-06-22T20:13:54;99209.31;;;25.44;44.64
25084;BME280;13075;55.682;37.564;2023-06-22T20:16:23;99212.03;;;24.71;46.39
25084;BME280;13075;55.682;37.564;2023-06-22T20:19:02;99203.81;;;25.30;44.90
25084;BME280;13075;55.682;37.564;2023-06-22T20:21:28;99203.66;;;24.81;46.13
25084;BME280;13075;55.682;37.564;2023-06-22T20:23:54;99202.88;;;24.30;47.33
25084;BME280;13075;55.682;37.564;2023-06-22T20:26:19;99189.78;;;24.91;45.92
25084;BME280;13075;55.682;37.564;2023-06-22T20:28:44;99199.13;;;24.90;46.00
25084;BME280;13075;55.682;37.564;2023-06-22T20:31:11;99196.56;;;24.48;46.97
25084;BME280;13075;55.682;37.564;2023-06-22T20:33:37;99181.69;;;25.00;45.87
25084;BME280;13075;55.682;37.564;2023-06-22T20:36:06;99179.97;;;25.04;45.44
25084;BME280;13075;55.682;37.564;2023-06-22T20:38:33;99175.13;;;24.68;45.31
25084;BME280;13075;55.682;37.564;2023-06-22T20:40:59;99172.25;;;24.78;45.83
25084;BME280;13075;55.682;37.564;2023-06-22T20:43:25;99173.88;;;24.15;47.05
25084;BME280;13075;55.682;37.564;2023-06-22T20:45:51;99165.13;;;24.77;45.65
25084;BME280;13075;55.682;37.564;2023-06-22T20:48:19;99161.59;;;24.12;46.86
25084;BME280;13075;55.682;37.564;2023-06-22T20:50:46;99155.38;;;24.07;46.83
25084;BME280;13075;55.682;37.564;2023-06-22T20:53:12;99160.75;;;23.75;47.40
25084;BME280;13075;55.682;37.564;2023-06-22T20:55:38;99152.72;;;24.21;47.14
25084;BME280;13075;55.682;37.564;2023-06-22T20:58:08;99155.38;;;24.26;46.80
25084;BME280;13075;55.682;37.564;2023-06-22T21:00:33;99148.06;;;24.53;46.30
25084;BME280;13075;55.682;37.564;2023-06-22T21:03:06;99148.66;;;23.62;48.06
25084;BME280;13075;55.682;37.564;2023-06-22T21:05:33;99139.09;;;24.34;46.89
25084;BME280;13075;55.682;37.564;2023-06-22T21:07:59;99139.34;;;24.65;46.20
25084;BME280;13075;55.682;37.564;2023-06-22T21:10:24;99143.19;;;24.83;45.55
25084;BME280;13075;55.682;37.564;2023-06-22T21:12:49;99137.34;;;24.25;46.60
25084;BME280;13075;55.682;37.564;2023-06-22T21:15:15;99136.41;;;23.60;47.94
25084;BME280;13075;55.682;37.564;2023-06-22T21:17:41;99140.34;;;24.09;46.99
25084;BME280;13075;55.682;37.564;2023-06-22T21:20:07;99143.56;;;24.11;45.86
25084;BME280;13075;55.682;37.564;2023-06-22T21:22:33;99133.84;;;23.68;47.55
25084;BME280;13075;55.682;37.564;2023-06-22T21:25:05;99152.00;;;23.78;47.30
25084;BME280;13075;55.682;37.564;2023-06-22T21:27:31;99149.91;;;23.88;46.87
25084;BME280;13075;55.682;37.564;2023-06-22T21:29:58;99141.16;;;24.10;45.96
25084;BME280;13075;55.682;37.564;2023-06-22T21:32:23;99138.63;;;23.95;46.60
25084;BME280;13075;55.682;37.564;2023-06-22T21:34:48;99151.25;;;24.09;46.40
25084;BME280;13075;55.682;37.564;2023-06-22T21:37:14;99133.50;;;22.85;49.34
25084;BME280;13075;55.682;37.564;2023-06-22T21:39:39;99127.63;;;23.44;48.12
25084;BME280;13075;55.682;37.564;2023-06-22T21:42:05;99132.56;;;23.61;47.48
25084;BME280;13075;55.682;37.564;2023-06-22T21:44:30;99120.81;;;23.18;48.62
25084;BME280;13075;55.682;37.564;2023-06-22T21:46:56;99128.16;;;23.46;48.09
25084;BME280;13075;55.682;37.564;2023-06-22T21:49:21;99141.00;;;23.45;48.17
25084;BME280;13075;55.682;37.564;2023-06-22T21:51:47;99116.25;;;23.13;49.07
25084;BME280;13075;55.682;37.564;2023-06-22T21:54:12;99111.19;;;23.25;48.69
25084;BME280;13075;55.682;37.564;2023-06-22T21:56:40;99106.91;;;23.43;48.51
25084;BME280;13075;55.682;37.564;2023-06-22T21:59:06;99103.78;;;23.68;47.83
25084;BME280;13075;55.682;37.564;2023-06-22T22:01:31;99090.91;;;23.31;48.57
25084;BME280;13075;55.682;37.564;2023-06-22T22:03:57;99101.13;;;22.78;49.51
25084;BME280;13075;55.682;37.564;2023-06-22T22:06:22;99096.72;;;22.54;50.37
25084;BME280;13075;55.682;37.564;2023-06-22T22:08:48;99091.19;;;23.11;48.09
25084;BME280;13075;55.682;37.564;2023-06-22T22:11:14;99083.94;;;23.02;49.80
25084;BME280;13075;55.682;37.564;2023-06-22T22:13:39;99080.34;;;23.25;48.56
25084;BME280;13075;55.682;37.564;2023-06-22T22:16:05;99079.66;;;23.38;48.88
25084;BME280;13075;55.682;37.564;2023-06-22T22:18:31;99060.94;;;23.82;47.85
25084;BME280;13075;55.682;37.564;2023-06-22T22:20:56;99060.56;;;23.89;47.36
25084;BME280;13075;55.682;37.564;2023-06-22T22:23:22;99057.59;;;23.85;47.20
25084;BME280;13075;55.682;37.564;2023-06-22T22:25:47;99051.59;;;24.02;46.35
25084;BME280;13075;55.682;37.564;2023-06-22T22:28:13;99073.94;;;23.34;48.35
25084;BME280;13075;55.682;37.564;2023-06-22T22:30:38;99084.31;;;23.56;47.77
25084;BME280;13075;55.682;37.564;2023-06-22T22:33:04;99082.59;;;23.60;47.22
25084;BME280;13075;55.682;37.564;2023-06-22T22:35:29;99097.69;;;23.34;47.31
25084;BME280;13075;55.682;37.564;2023-06-22T22:37:55;99094.63;;;22.98;48.11
25084;BME280;13075;55.682;37.564;2023-06-22T22:40:21;99085.41;;;23.13;47.86
25084;BME280;13075;55.682;37.564;2023-06-22T22:42:46;99065.88;;;22.06;49.85
25084;BME280;13075;55.682;37.564;2023-06-22T22:45:12;99045.72;;;22.02;50.42
25084;BME280;13075;55.682;37.564;2023-06-22T22:47:37;99075.38;;;22.37;49.91
25084;BME280;13075;55.682;37.564;2023-06-22T22:50:03;99072.91;;;22.88;48.92
25084;BME280;13075;55.682;37.564;2023-06-22T22:52:28;99075.00;;;22.72;48.92
25084;BME280;13075;55.682;37.564;2023-06-22T22:55:00;99066.66;;;22.64;48.78
25084;BME280;13075;55.682;37.564;2023-06-22T22:57:26;99073.16;;;23.52;47.21
25084;BME280;13075;55.682;37.564;2023-06-22T22:59:53;99069.44;;;23.43;47.36
25084;BME280;13075;55.682;37.564;2023-06-22T23:02:18;99060.09;;;23.49;46.93
25084;BME280;13075;55.682;37.564;2023-06-22T23:04:53;99060.66;;;23.65;46.41
25084;BME280;13075;55.682;37.564;2023-06-22T23:07:19;99060.44;;;23.24;47.59
25084;BME280;13075;55.682;37.564;2023-06-22T23:09:44;99058.97;;;23.69;46.79
25084;BME280;13075;55.682;37.564;2023-06-22T23:12:10;99055.09;;;23.38;47.15
25084;BME280;13075;55.682;37.564;2023-06-22T23:14:35;99054.06;;;22.91;47.79
25084;BME280;13075;55.682;37.564;2023-06-22T23:17:01;99045.81;;;23.15;47.99
25084;BME280;13075;55.682;37.564;2023-06-22T23:19:28;99053.78;;;23.12;48.19
25084;BME280;13075;55.682;37.564;2023-06-22T23:21:53;99054.53;;;23.17;48.04
25084;BME280;13075;55.682;37.564;2023-06-22T23:24:19;99039.56;;;23.15;47.86
25084;BME280;13075;55.682;37.564;2023-06-22T23:26:44;99054.47;;;23.22;48.12
25084;BME280;13075;55.682;37.564;2023-06-22T23:29:13;99056.84;;;22.86;48.40
25084;BME280;13075;55.682;37.564;2023-06-22T23:31:38;99054.78;;;23.39;47.70
25084;BME280;13075;55.682;37.564;2023-06-22T23:34:04;99049.28;;;23.21;48.08
25084;BME280;13075;55.682;37.564;2023-06-22T23:36:29;99043.75;;;23.26;48.01
25084;BME280;13075;55.682;37.564;2023-06-22T23:38:54;99052.63;;;23.36;47.59
25084;BME280;13075;55.682;37.564;2023-06-22T23:41:20;99049.88;;;23.74;46.79
25084;BME280;13075;55.682;37.564;2023-06-22T23:43:46;99050.56;;;23.66;46.77
25084;BME280;13075;55.682;37.564;2023-06-22T23:46:12;99036.28;;;23.13;47.79
25084;BME280;13075;55.682;37.564;2023-06-22T23:48:37;99034.41;;;23.69;46.67
25084;BME280;13075;55.682;37.564;2023-06-22T23:51:03;99032.56;;;23.27;47.61
25084;BME280;13075;55.682;37.564;2023-06-22T23:53:28;99037.63;;;22.97;48.29
25084;BME280;13075;55.682;37.564;2023-06-22T23:55:53;99038.47;;;23.53;47.61
25084;BME280;13075;55.682;37.564;2023-06-22T23:58:23;99030.53;;;23.38;47.46
